sensor_id;sensor_type;location;lat;lon;timestamp;pressure;altitude;pressure_sealevel;temperature;humidity
53868;BME280;41577;47.470;19.080;2022-10-16T00:00:03;100664.63;;;14.60;73.95
53868;BME280;41577;47.470;19.080;2022-10-16T00:00:21;100668.13;;;14.61;73.38
53868;BME280;41577;47.470;19.080;2022-10-16T00:00:39;100673.50;;;14.61;73.72
53868;BME280;41577;47.470;19.080;2022-10-16T00:00:53;100668.13;;;14.61;73.42
53868;BME280;41577;47.470;19.080;2022-10-16T00:01:11;100663.56;;;14.61;73.99
53868;BME280;41577;47.470;19.080;2022-10-16T00:01:30;100663.56;;;14.61;73.99
53868;BME280;41577;47.470;19.080;2022-10-16T00:01:45;100670.00;;;14.60;73.67
53868;BME280;41577;47.470;19.080;2022-10-16T00:02:02;100665.44;;;14.61;74.10
53868;BME280;41577;47.470;19.080;2022-10-16T00:02:19;100667.13;;;14.62;74.26
53868;BME280;41577;47.470;19.080;2022-10-16T00:02:36;100664.63;;;14.60;74.25
53868;BME280;41577;47.470;19.080;2022-10-16T00:02:51;100668.13;;;14.61;73.79
53868;BME280;41577;47.470;19.080;2022-10-16T00:03:08;100664.63;;;14.60;73.84
53868;BME280;41577;47.470;19.080;2022-10-16T00:03:23;100666.50;;;14.60;73.33
53868;BME280;41577;47.470;19.080;2022-10-16T00:03:37;100660.06;;;14.61;73.73
53868;BME280;41577;47.470;19.080;2022-10-16T00:03:55;100661.94;;;14.60;74.18
53868;BME280;41577;47.470;19.080;2022-10-16T00:04:16;100659.25;;;14.60;73.85
53868;BME280;41577;47.470;19.080;2022-10-16T00:04:31;100664.63;;;14.60;74.07
53868;BME280;41577;47.470;19.080;2022-10-16T00:04:46;100656.75;;;14.59;73.42
53868;BME280;41577;47.470;19.080;2022-10-16T00:05:00;100661.13;;;14.60;74.31
53868;BME280;41577;47.470;19.080;2022-10-16T00:05:15;100657.38;;;14.61;74.50
53868;BME280;41577;47.470;19.080;2022-10-16T00:05:31;100661.94;;;14.60;73.92
53868;BME280;41577;47.470;19.080;2022-10-16T00:05:52;100662.94;;;14.59;74.23
53868;BME280;41577;47.470;19.080;2022-10-16T00:06:12;100661.13;;;14.60;73.91
53868;BME280;41577;47.470;19.080;2022-10-16T00:06:28;100655.94;;;14.58;73.87
53868;BME280;41577;47.470;19.080;2022-10-16T00:06:44;100654.88;;;14.59;74.32
53868;BME280;41577;47.470;19.080;2022-10-16T00:07:00;100657.59;;;14.59;74.74
53868;BME280;41577;47.470;19.080;2022-10-16T00:07:18;100661.13;;;14.60;73.74
53868;BME280;41577;47.470;19.080;2022-10-16T00:07:34;100669.19;;;14.60;74.09
53868;BME280;41577;47.470;19.080;2022-10-16T00:07:49;100660.25;;;14.59;74.67
53868;BME280;41577;47.470;19.080;2022-10-16T00:08:03;100658.44;;;14.60;74.13
53868;BME280;41577;47.470;19.080;2022-10-16T00:08:24;100661.13;;;14.60;74.04
53868;BME280;41577;47.470;19.080;2022-10-16T00:08:40;100663.81;;;14.60;73.77
53868;BME280;41577;47.470;19.080;2022-10-16T00:09:01;100665.66;;;14.59;73.50
53868;BME280;41577;47.470;19.080;2022-10-16T00:09:18;100662.94;;;14.59;74.07
53868;BME280;41577;47.470;19.080;2022-10-16T00:09:33;100659.44;;;14.59;73.76
53868;BME280;41577;47.470;19.080;2022-10-16T00:09:49;100666.50;;;14.60;73.51
53868;BME280;41577;47.470;19.080;2022-10-16T00:10:06;100663.81;;;14.60;74.09
53868;BME280;41577;47.470;19.080;2022-10-16T00:10:23;100662.94;;;14.59;74.25
53868;BME280;41577;47.470;19.080;2022-10-16T00:10:40;100656.56;;;14.60;73.73
53868;BME280;41577;47.470;19.080;2022-10-16T00:11:07;100658.44;;;14.60;74.45
53868;BME280;41577;47.470;19.080;2022-10-16T00:11:24;100665.66;;;14.59;73.91
53868;BME280;41577;47.470;19.080;2022-10-16T00:11:40;100662.94;;;14.59;74.02
53868;BME280;41577;47.470;19.080;2022-10-16T00:11:58;100671.00;;;14.59;73.47
53868;BME280;41577;47.470;19.080;2022-10-16T00:12:21;100659.44;;;14.59;73.46
53868;BME280;41577;47.470;19.080;2022-10-16T00:12:36;100661.31;;;14.58;74.32
53868;BME280;41577;47.470;19.080;2022-10-16T00:12:51;100667.50;;;14.59;73.59
53868;BME280;41577;47.470;19.080;2022-10-16T00:13:06;100663.19;;;14.58;74.08
53868;BME280;41577;47.470;19.080;2022-10-16T00:13:21;100661.31;;;14.58;74.10
53868;BME280;41577;47.470;19.080;2022-10-16T00:13:38;100661.31;;;14.58;74.18
53868;BME280;41577;47.470;19.080;2022-10-16T00:13:56;100664.00;;;14.58;73.85
53868;BME280;41577;47.470;19.080;2022-10-16T00:14:14;100660.50;;;14.58;73.69
53868;BME280;41577;47.470;19.080;2022-10-16T00:14:29;100651.59;;;14.57;74.01
53868;BME280;41577;47.470;19.080;2022-10-16T00:14:45;100660.50;;;14.58;73.58
53868;BME280;41577;47.470;19.080;2022-10-16T00:15:01;100660.50;;;14.58;74.25
53868;BME280;41577;47.470;19.080;2022-10-16T00:15:19;100664.00;;;14.58;74.12
53868;BME280;41577;47.470;19.080;2022-10-16T00:15:36;100658.81;;;14.57;74.05
53868;BME280;41577;47.470;19.080;2022-10-16T00:15:55;100663.19;;;14.58;73.88
53868;BME280;41577;47.470;19.080;2022-10-16T00:16:12;100657.00;;;14.57;73.85
53868;BME280;41577;47.470;19.080;2022-10-16T00:16:29;100664.19;;;14.57;73.97
53868;BME280;41577;47.470;19.080;2022-10-16T00:16:46;100656.13;;;14.57;73.95
53868;BME280;41577;47.470;19.080;2022-10-16T00:17:02;100657.81;;;14.58;73.57
53868;BME280;41577;47.470;19.080;2022-10-16T00:17:16;100659.66;;;14.57;74.27
53868;BME280;41577;47.470;19.080;2022-10-16T00:17:35;100660.69;;;14.56;73.49
53868;BME280;41577;47.470;19.080;2022-10-16T00:17:50;100656.13;;;14.57;73.97
53868;BME280;41577;47.470;19.080;2022-10-16T00:18:05;100665.25;;;14.56;73.88
53868;BME280;41577;47.470;19.080;2022-10-16T00:18:21;100658.81;;;14.57;74.54
53868;BME280;41577;47.470;19.080;2022-10-16T00:18:37;100660.69;;;14.56;73.36
53868;BME280;41577;47.470;19.080;2022-10-16T00:18:56;100657.19;;;14.56;73.33
53868;BME280;41577;47.470;19.080;2022-10-16T00:19:15;100661.75;;;14.55;74.03
53868;BME280;41577;47.470;19.080;2022-10-16T00:19:32;100656.38;;;14.55;73.42
53868;BME280;41577;47.470;19.080;2022-10-16T00:19:50;100662.56;;;14.56;73.48
53868;BME280;41577;47.470;19.080;2022-10-16T00:20:08;100655.50;;;14.55;73.63
53868;BME280;41577;47.470;19.080;2022-10-16T00:20:28;100662.56;;;14.56;73.68
53868;BME280;41577;47.470;19.080;2022-10-16T00:20:48;100660.88;;;14.55;72.93
53868;BME280;41577;47.470;19.080;2022-10-16T00:21:04;100666.25;;;14.55;73.33
53868;BME280;41577;47.470;19.080;2022-10-16T00:21:28;100659.22;;;14.54;73.52
53868;BME280;41577;47.470;19.080;2022-10-16T00:21:43;100653.84;;;14.54;73.46
53868;BME280;41577;47.470;19.080;2022-10-16T00:21:59;100655.72;;;14.53;73.88
53868;BME280;41577;47.470;19.080;2022-10-16T00:22:16;100660.06;;;14.54;73.20
53868;BME280;41577;47.470;19.080;2022-10-16T00:22:36;100661.91;;;14.54;73.36
53868;BME280;41577;47.470;19.080;2022-10-16T00:22:53;100661.91;;;14.54;73.65
53868;BME280;41577;47.470;19.080;2022-10-16T00:23:07;100662.91;;;14.53;73.09
53868;BME280;41577;47.470;19.080;2022-10-16T00:23:23;100656.72;;;14.52;73.68
53868;BME280;41577;47.470;19.080;2022-10-16T00:23:39;100660.22;;;14.53;73.68
53868;BME280;41577;47.470;19.080;2022-10-16T00:23:56;100664.59;;;14.54;73.30
53868;BME280;41577;47.470;19.080;2022-10-16T00:24:26;100660.22;;;14.53;73.71
53868;BME280;41577;47.470;19.080;2022-10-16T00:24:41;100668.28;;;14.53;73.22
53868;BME280;41577;47.470;19.080;2022-10-16T00:24:57;100659.41;;;14.52;73.91
53868;BME280;41577;47.470;19.080;2022-10-16T00:25:11;100662.91;;;14.53;73.78
53868;BME280;41577;47.470;19.080;2022-10-16T00:25:27;100664.78;;;14.52;73.53
53868;BME280;41577;47.470;19.080;2022-10-16T00:25:41;100662.91;;;14.53;73.32
53868;BME280;41577;47.470;19.080;2022-10-16T00:26:02;100667.47;;;14.52;73.31
53868;BME280;41577;47.470;19.080;2022-10-16T00:26:21;100667.47;;;14.52;73.31
53868;BME280;41577;47.470;19.080;2022-10-16T00:26:37;100667.47;;;14.52;73.67
53868;BME280;41577;47.470;19.080;2022-10-16T00:26:52;100663.16;;;14.51;73.30
53868;BME280;41577;47.470;19.080;2022-10-16T00:27:06;100665.81;;;14.51;73.18
53868;BME280;41577;47.470;19.080;2022-10-16T00:27:23;100661.28;;;14.52;73.11
53868;BME280;41577;47.470;19.080;2022-10-16T00:27:43;100666.66;;;14.52;73.67
53868;BME280;41577;47.470;19.080;2022-10-16T00:27:59;100661.28;;;14.52;73.29
53868;BME280;41577;47.470;19.080;2022-10-16T00:28:14;100672.03;;;14.52;73.34
53868;BME280;41577;47.470;19.080;2022-10-16T00:28:30;100666.66;;;14.52;73.68
53868;BME280;41577;47.470;19.080;2022-10-16T00:28:46;100669.34;;;14.52;73.57
53868;BME280;41577;47.470;19.080;2022-10-16T00:29:05;100666.66;;;14.52;73.03
53868;BME280;41577;47.470;19.080;2022-10-16T00:29:22;100669.34;;;14.52;73.80
53868;BME280;41577;47.470;19.080;2022-10-16T00:29:38;100671.22;;;14.51;73.76
53868;BME280;41577;47.470;19.080;2022-10-16T00:29:55;100664.16;;;14.50;73.31
53868;BME280;41577;47.470;19.080;2022-10-16T00:30:10;100666.84;;;14.50;73.34
53868;BME280;41577;47.470;19.080;2022-10-16T00:30:24;100668.53;;;14.51;73.48
53868;BME280;41577;47.470;19.080;2022-10-16T00:30:41;100670.38;;;14.51;73.02
53868;BME280;41577;47.470;19.080;2022-10-16T00:31:02;100663.34;;;14.50;73.28
53868;BME280;41577;47.470;19.080;2022-10-16T00:31:19;100671.41;;;14.50;73.48
53868;BME280;41577;47.470;19.080;2022-10-16T00:31:35;100665.00;;;14.51;73.82
53868;BME280;41577;47.470;19.080;2022-10-16T00:31:51;100670.56;;;14.49;73.18
53868;BME280;41577;47.470;19.080;2022-10-16T00:32:13;100674.09;;;14.50;73.74
53868;BME280;41577;47.470;19.080;2022-10-16T00:32:31;100675.13;;;14.49;73.27
53868;BME280;41577;47.470;19.080;2022-10-16T00:32:46;100675.13;;;14.49;73.14
53868;BME280;41577;47.470;19.080;2022-10-16T00:33:01;100679.47;;;14.50;72.73
53868;BME280;41577;47.470;19.080;2022-10-16T00:33:16;100675.13;;;14.49;73.21
53868;BME280;41577;47.470;19.080;2022-10-16T00:33:30;100675.97;;;14.49;72.88
53868;BME280;41577;47.470;19.080;2022-10-16T00:33:46;100673.25;;;14.49;72.64
53868;BME280;41577;47.470;19.080;2022-10-16T00:34:00;100685.03;;;14.48;73.06
53868;BME280;41577;47.470;19.080;2022-10-16T00:34:18;100681.53;;;14.48;72.99
53868;BME280;41577;47.470;19.080;2022-10-16T00:34:36;100671.59;;;14.48;72.57
53868;BME280;41577;47.470;19.080;2022-10-16T00:34:50;100674.28;;;14.48;73.05
53868;BME280;41577;47.470;19.080;2022-10-16T00:35:07;100680.69;;;14.47;73.31
53868;BME280;41577;47.470;19.080;2022-10-16T00:35:24;100675.31;;;14.47;73.38
53868;BME280;41577;47.470;19.080;2022-10-16T00:35:39;100676.16;;;14.48;73.03
53868;BME280;41577;47.470;19.080;2022-10-16T00:35:53;100676.16;;;14.48;73.05
53868;BME280;41577;47.470;19.080;2022-10-16T00:36:11;100682.34;;;14.48;72.65
53868;BME280;41577;47.470;19.080;2022-10-16T00:36:26;100673.47;;;14.48;72.52
53868;BME280;41577;47.470;19.080;2022-10-16T00:36:42;100681.53;;;14.48;73.44
53868;BME280;41577;47.470;19.080;2022-10-16T00:37:00;100676.16;;;14.48;72.65
53868;BME280;41577;47.470;19.080;2022-10-16T00:37:16;100676.16;;;14.48;73.35
53868;BME280;41577;47.470;19.080;2022-10-16T00:37:34;100679.88;;;14.47;73.52
53868;BME280;41577;47.470;19.080;2022-10-16T00:37:48;100677.19;;;14.47;73.27
53868;BME280;41577;47.470;19.080;2022-10-16T00:38:03;100680.69;;;14.47;73.45
53868;BME280;41577;47.470;19.080;2022-10-16T00:38:18;100679.88;;;14.47;73.44
53868;BME280;41577;47.470;19.080;2022-10-16T00:38:33;100676.38;;;14.46;73.17
53868;BME280;41577;47.470;19.080;2022-10-16T00:38:50;100669.94;;;14.47;73.06
53868;BME280;41577;47.470;19.080;2022-10-16T00:39:06;100673.47;;;14.48;73.06
53868;BME280;41577;47.470;19.080;2022-10-16T00:39:20;100678.84;;;14.48;72.71
53868;BME280;41577;47.470;19.080;2022-10-16T00:39:37;100677.19;;;14.47;73.29
53868;BME280;41577;47.470;19.080;2022-10-16T00:40:01;100680.69;;;14.47;73.08
53868;BME280;41577;47.470;19.080;2022-10-16T00:40:17;100680.69;;;14.47;73.59
53868;BME280;41577;47.470;19.080;2022-10-16T00:40:33;100679.88;;;14.47;72.99
53868;BME280;41577;47.470;19.080;2022-10-16T00:40:49;100680.69;;;14.47;72.68
53868;BME280;41577;47.470;19.080;2022-10-16T00:41:10;100679.88;;;14.47;73.12
53868;BME280;41577;47.470;19.080;2022-10-16T00:41:28;100681.75;;;14.46;73.47
53868;BME280;41577;47.470;19.080;2022-10-16T00:41:43;100675.53;;;14.46;72.94
53868;BME280;41577;47.470;19.080;2022-10-16T00:41:58;100680.91;;;14.46;73.16
53868;BME280;41577;47.470;19.080;2022-10-16T00:42:26;100683.59;;;14.46;72.94
53868;BME280;41577;47.470;19.080;2022-10-16T00:42:42;100683.59;;;14.46;72.98
53868;BME280;41577;47.470;19.080;2022-10-16T00:42:56;100688.97;;;14.46;72.63
53868;BME280;41577;47.470;19.080;2022-10-16T00:43:14;100680.06;;;14.45;73.24
53868;BME280;41577;47.470;19.080;2022-10-16T00:43:48;100688.97;;;14.46;73.40
53868;BME280;41577;47.470;19.080;2022-10-16T00:44:43;100681.13;;;14.44;73.31
53868;BME280;41577;47.470;19.080;2022-10-16T00:45:00;100679.44;;;14.43;72.75
53868;BME280;41577;47.470;19.080;2022-10-16T00:45:15;100687.31;;;14.44;73.34
53868;BME280;41577;47.470;19.080;2022-10-16T00:45:31;100684.81;;;14.43;72.65
53868;BME280;41577;47.470;19.080;2022-10-16T00:45:46;100688.34;;;14.43;72.24
53868;BME280;41577;47.470;19.080;2022-10-16T00:46:11;100690.19;;;14.43;72.29
53868;BME280;41577;47.470;19.080;2022-10-16T00:46:35;100684.19;;;14.41;72.45
53868;BME280;41577;47.470;19.080;2022-10-16T00:46:50;100691.25;;;14.42;72.29
53868;BME280;41577;47.470;19.080;2022-10-16T00:47:08;100690.44;;;14.41;72.53
53868;BME280;41577;47.470;19.080;2022-10-16T00:47:26;100683.19;;;14.42;72.35
53868;BME280;41577;47.470;19.080;2022-10-16T00:47:43;100693.94;;;14.42;72.33
53868;BME280;41577;47.470;19.080;2022-10-16T00:48:08;100686.06;;;14.40;71.85
53868;BME280;41577;47.470;19.080;2022-10-16T00:48:25;100687.72;;;14.41;72.21
53868;BME280;41577;47.470;19.080;2022-10-16T00:48:42;100685.06;;;14.41;72.06
53868;BME280;41577;47.470;19.080;2022-10-16T00:49:03;100685.06;;;14.41;72.23
53868;BME280;41577;47.470;19.080;2022-10-16T00:49:19;100690.44;;;14.41;71.85
53868;BME280;41577;47.470;19.080;2022-10-16T00:49:36;100690.44;;;14.41;72.43
53868;BME280;41577;47.470;19.080;2022-10-16T00:49:56;100685.25;;;14.40;71.81
53868;BME280;41577;47.470;19.080;2022-10-16T00:50:18;100686.88;;;14.41;72.45
53868;BME280;41577;47.470;19.080;2022-10-16T00:50:37;100691.44;;;14.40;72.54
53868;BME280;41577;47.470;19.080;2022-10-16T00:50:52;100685.25;;;14.40;72.60
53868;BME280;41577;47.470;19.080;2022-10-16T00:51:08;100686.06;;;14.40;71.93
53868;BME280;41577;47.470;19.080;2022-10-16T00:51:28;100680.69;;;14.40;71.92
53868;BME280;41577;47.470;19.080;2022-10-16T00:51:46;100682.56;;;14.40;72.42
53868;BME280;41577;47.470;19.080;2022-10-16T00:52:01;100687.09;;;14.39;72.10
53868;BME280;41577;47.470;19.080;2022-10-16T00:52:16;100687.94;;;14.40;72.38
53868;BME280;41577;47.470;19.080;2022-10-16T00:52:36;100682.56;;;14.40;72.07
53868;BME280;41577;47.470;19.080;2022-10-16T00:52:56;100686.88;;;14.41;72.01
53868;BME280;41577;47.470;19.080;2022-10-16T00:53:13;100687.09;;;14.39;72.61
53868;BME280;41577;47.470;19.080;2022-10-16T00:53:29;100689.78;;;14.39;71.98
53868;BME280;41577;47.470;19.080;2022-10-16T00:53:48;100684.41;;;14.39;72.57
53868;BME280;41577;47.470;19.080;2022-10-16T00:54:08;100680.88;;;14.39;72.46
53868;BME280;41577;47.470;19.080;2022-10-16T00:54:26;100680.88;;;14.39;72.33
53868;BME280;41577;47.470;19.080;2022-10-16T00:54:41;100685.44;;;14.38;72.75
53868;BME280;41577;47.470;19.080;2022-10-16T00:54:57;100680.06;;;14.38;72.79
53868;BME280;41577;47.470;19.080;2022-10-16T00:55:13;100681.09;;;14.37;73.11
53868;BME280;41577;47.470;19.080;2022-10-16T00:55:34;100686.47;;;14.37;73.11
53868;BME280;41577;47.470;19.080;2022-10-16T00:55:52;100683.78;;;14.37;72.55
53868;BME280;41577;47.470;19.080;2022-10-16T00:56:10;100682.13;;;14.36;72.87
53868;BME280;41577;47.470;19.080;2022-10-16T00:56:26;100684.81;;;14.36;73.19
53868;BME280;41577;47.470;19.080;2022-10-16T00:56:41;100689.38;;;14.36;73.06
53868;BME280;41577;47.470;19.080;2022-10-16T00:57:04;100684.81;;;14.36;72.69
53868;BME280;41577;47.470;19.080;2022-10-16T00:57:19;100684.81;;;14.36;72.74
53868;BME280;41577;47.470;19.080;2022-10-16T00:57:34;100682.13;;;14.36;72.88
53868;BME280;41577;47.470;19.080;2022-10-16T00:57:59;100690.41;;;14.35;72.60
53868;BME280;41577;47.470;19.080;2022-10-16T00:58:16;100686.69;;;14.36;72.82
53868;BME280;41577;47.470;19.080;2022-10-16T00:58:36;100688.53;;;14.35;72.67
53868;BME280;41577;47.470;19.080;2022-10-16T00:58:52;100682.34;;;14.35;72.82
53868;BME280;41577;47.470;19.080;2022-10-16T00:59:10;100684.41;;;14.33;73.03
53868;BME280;41577;47.470;19.080;2022-10-16T00:59:28;100686.06;;;14.34;72.45
53868;BME280;41577;47.470;19.080;2022-10-16T00:59:44;100696.78;;;14.34;73.15
53868;BME280;41577;47.470;19.080;2022-10-16T01:00:10;100689.56;;;14.34;72.46
53868;BME280;41577;47.470;19.080;2022-10-16T01:00:26;100689.78;;;14.33;72.54
53868;BME280;41577;47.470;19.080;2022-10-16T01:00:44;100694.34;;;14.32;72.86
53868;BME280;41577;47.470;19.080;2022-10-16T01:01:00;100692.47;;;14.33;73.06
53868;BME280;41577;47.470;19.080;2022-10-16T01:01:16;100689.78;;;14.33;72.71
53868;BME280;41577;47.470;19.080;2022-10-16T01:01:35;100693.47;;;14.32;73.21
53868;BME280;41577;47.470;19.080;2022-10-16T01:01:55;100691.84;;;14.31;72.54
53868;BME280;41577;47.470;19.080;2022-10-16T01:02:15;100697.03;;;14.32;72.79
53868;BME280;41577;47.470;19.080;2022-10-16T01:02:30;100687.28;;;14.31;72.85
53868;BME280;41577;47.470;19.080;2022-10-16T01:02:51;100696.38;;;14.30;72.85
53868;BME280;41577;47.470;19.080;2022-10-16T01:03:23;100690.16;;;14.30;73.02
53868;BME280;41577;47.470;19.080;2022-10-16T01:03:42;100688.53;;;14.29;72.67
53868;BME280;41577;47.470;19.080;2022-10-16T01:03:58;100698.22;;;14.30;72.86
53868;BME280;41577;47.470;19.080;2022-10-16T01:04:13;100690.16;;;14.30;72.34
53868;BME280;41577;47.470;19.080;2022-10-16T01:04:33;100692.22;;;14.28;72.74
53868;BME280;41577;47.470;19.080;2022-10-16T01:04:50;100696.59;;;14.29;72.60
53868;BME280;41577;47.470;19.080;2022-10-16T01:05:08;100696.78;;;14.27;72.91
53868;BME280;41577;47.470;19.080;2022-10-16T01:05:26;100699.47;;;14.27;72.77
53868;BME280;41577;47.470;19.080;2022-10-16T01:05:57;100698.66;;;14.27;72.39
53868;BME280;41577;47.470;19.080;2022-10-16T01:06:23;100698.84;;;14.25;72.84
53868;BME280;41577;47.470;19.080;2022-10-16T01:06:43;100699.69;;;14.26;72.24
53868;BME280;41577;47.470;19.080;2022-10-16T01:07:06;100695.31;;;14.25;72.95
53868;BME280;41577;47.470;19.080;2022-10-16T01:07:32;100699.88;;;14.24;72.71
53868;BME280;41577;47.470;19.080;2022-10-16T01:07:56;100697.38;;;14.22;72.86
53868;BME280;41577;47.470;19.080;2022-10-16T01:08:17;100696.56;;;14.22;71.94
53868;BME280;41577;47.470;19.080;2022-10-16T01:08:39;100696.56;;;14.22;72.97
53868;BME280;41577;47.470;19.080;2022-10-16T01:09:06;100694.94;;;14.21;72.41
53868;BME280;41577;47.470;19.080;2022-10-16T01:09:30;100698.63;;;14.20;72.15
53868;BME280;41577;47.470;19.080;2022-10-16T01:10:04;100698.63;;;14.20;72.92
53868;BME280;41577;47.470;19.080;2022-10-16T01:10:27;100705.88;;;14.19;72.33
53868;BME280;41577;47.470;19.080;2022-10-16T01:10:48;100700.69;;;14.18;72.38
53868;BME280;41577;47.470;19.080;2022-10-16T01:11:15;100698.81;;;14.18;73.02
53868;BME280;41577;47.470;19.080;2022-10-16T01:11:36;100706.06;;;14.18;72.61
53868;BME280;41577;47.470;19.080;2022-10-16T01:11:57;100706.06;;;14.18;73.13
53868;BME280;41577;47.470;19.080;2022-10-16T01:12:30;100698.81;;;14.18;73.03
53868;BME280;41577;47.470;19.080;2022-10-16T01:12:52;100707.09;;;14.17;72.42
53868;BME280;41577;47.470;19.080;2022-10-16T01:13:18;100692.84;;;14.16;72.85
53868;BME280;41577;47.470;19.080;2022-10-16T01:13:38;100698.22;;;14.16;72.25
53868;BME280;41577;47.470;19.080;2022-10-16T01:13:58;100694.69;;;14.16;72.36
53868;BME280;41577;47.470;19.080;2022-10-16T01:14:21;100700.28;;;14.14;73.07
53868;BME280;41577;47.470;19.080;2022-10-16T01:14:42;100700.28;;;14.14;73.25
53868;BME280;41577;47.470;19.080;2022-10-16T01:15:17;100696.72;;;14.14;72.97
53868;BME280;41577;47.470;19.080;2022-10-16T01:15:37;100697.78;;;14.13;73.52
53868;BME280;41577;47.470;19.080;2022-10-16T01:16:06;100697.78;;;14.13;73.14
53868;BME280;41577;47.470;19.080;2022-10-16T01:16:29;100693.44;;;14.12;73.47
53868;BME280;41577;47.470;19.080;2022-10-16T01:16:51;100697.97;;;14.11;73.30
53868;BME280;41577;47.470;19.080;2022-10-16T01:17:12;100696.34;;;14.10;72.78
53868;BME280;41577;47.470;19.080;2022-10-16T01:17:35;100696.53;;;14.09;72.97
53868;BME280;41577;47.470;19.080;2022-10-16T01:17:57;100699.22;;;14.09;73.35
53868;BME280;41577;47.470;19.080;2022-10-16T01:18:17;100703.75;;;14.08;73.27
53868;BME280;41577;47.470;19.080;2022-10-16T01:18:36;100702.13;;;14.07;73.08
53868;BME280;41577;47.470;19.080;2022-10-16T01:18:54;100696.94;;;14.06;72.92
53868;BME280;41577;47.470;19.080;2022-10-16T01:19:17;100697.13;;;14.04;73.55
53868;BME280;41577;47.470;19.080;2022-10-16T01:19:50;100701.88;;;14.02;73.78
53868;BME280;41577;47.470;19.080;2022-10-16T01:20:21;100700.22;;;14.01;73.14
53868;BME280;41577;47.470;19.080;2022-10-16T01:20:41;100699.41;;;14.00;73.71
53868;BME280;41577;47.470;19.080;2022-10-16T01:21:01;100700.41;;;13.99;73.61
53868;BME280;41577;47.470;19.080;2022-10-16T01:21:21;100701.25;;;14.00;73.60
53868;BME280;41577;47.470;19.080;2022-10-16T01:21:40;100704.97;;;13.99;73.85
53868;BME280;41577;47.470;19.080;2022-10-16T01:21:58;100704.34;;;13.97;73.47
53868;BME280;41577;47.470;19.080;2022-10-16T01:22:14;100702.47;;;13.97;73.98
53868;BME280;41577;47.470;19.080;2022-10-16T01:22:36;100707.03;;;13.97;73.77
53868;BME280;41577;47.470;19.080;2022-10-16T01:23:04;100705.38;;;13.96;73.55
53868;BME280;41577;47.470;19.080;2022-10-16T01:23:28;100703.69;;;13.95;73.73
53868;BME280;41577;47.470;19.080;2022-10-16T01:23:51;100703.91;;;13.93;74.11
53868;BME280;41577;47.470;19.080;2022-10-16T01:24:17;100699.56;;;13.92;73.43
53868;BME280;41577;47.470;19.080;2022-10-16T01:24:41;100708.66;;;13.91;73.64
53868;BME280;41577;47.470;19.080;2022-10-16T01:25:02;100713.19;;;13.91;74.36
53868;BME280;41577;47.470;19.080;2022-10-16T01:25:25;100709.69;;;13.90;74.35
53868;BME280;41577;47.470;19.080;2022-10-16T01:26:16;100713.59;;;13.88;74.12
53868;BME280;41577;47.470;19.080;2022-10-16T01:27:13;100714.81;;;13.85;74.31
53868;BME280;41577;47.470;19.080;2022-10-16T01:27:31;100716.69;;;13.85;74.43
53868;BME280;41577;47.470;19.080;2022-10-16T01:28:06;100714.38;;;13.81;74.15
53868;BME280;41577;47.470;19.080;2022-10-16T01:28:29;100719.56;;;13.83;74.13
53868;BME280;41577;47.470;19.080;2022-10-16T01:28:49;100713.56;;;13.81;74.11
53868;BME280;41577;47.470;19.080;2022-10-16T01:29:08;100718.28;;;13.79;74.79
53868;BME280;41577;47.470;19.080;2022-10-16T01:29:26;100718.28;;;13.79;74.46
53868;BME280;41577;47.470;19.080;2022-10-16T01:29:51;100713.97;;;13.78;74.53
53868;BME280;41577;47.470;19.080;2022-10-16T01:30:12;100714.97;;;13.77;74.07
53868;BME280;41577;47.470;19.080;2022-10-16T01:30:30;100714.16;;;13.76;74.60
53868;BME280;41577;47.470;19.080;2022-10-16T01:30:49;100708.97;;;13.75;74.64
53868;BME280;41577;47.470;19.080;2022-10-16T01:31:11;100713.72;;;13.73;74.74
53868;BME280;41577;47.470;19.080;2022-10-16T01:31:31;100718.06;;;13.74;74.39
53868;BME280;41577;47.470;19.080;2022-10-16T01:31:54;100712.91;;;13.72;74.71
53868;BME280;41577;47.470;19.080;2022-10-16T01:32:16;100715.78;;;13.71;74.38
53868;BME280;41577;47.470;19.080;2022-10-16T01:32:38;100711.44;;;13.70;74.69
53868;BME280;41577;47.470;19.080;2022-10-16T01:33:01;100709.78;;;13.69;74.29
53868;BME280;41577;47.470;19.080;2022-10-16T01:33:20;100705.66;;;13.66;74.71
53868;BME280;41577;47.470;19.080;2022-10-16T01:33:39;100711.84;;;13.67;74.86
53868;BME280;41577;47.470;19.080;2022-10-16T01:33:59;100710.16;;;13.66;74.36
53868;BME280;41577;47.470;19.080;2022-10-16T01:34:18;100712.84;;;13.66;74.87
53868;BME280;41577;47.470;19.080;2022-10-16T01:34:37;100713.06;;;13.64;74.97
53868;BME280;41577;47.470;19.080;2022-10-16T01:34:57;100707.91;;;13.63;75.26
53868;BME280;41577;47.470;19.080;2022-10-16T01:35:21;100704.38;;;13.62;74.85
53868;BME280;41577;47.470;19.080;2022-10-16T01:35:41;100706.25;;;13.62;74.96
53868;BME280;41577;47.470;19.080;2022-10-16T01:36:01;100713.44;;;13.61;75.04
53868;BME280;41577;47.470;19.080;2022-10-16T01:36:21;100712.81;;;13.59;74.74
53868;BME280;41577;47.470;19.080;2022-10-16T01:36:44;100720.03;;;13.58;74.74
53868;BME280;41577;47.470;19.080;2022-10-16T01:37:05;100709.50;;;13.57;74.81
53868;BME280;41577;47.470;19.080;2022-10-16T01:37:27;100711.34;;;13.56;75.20
53868;BME280;41577;47.470;19.080;2022-10-16T01:37:47;100715.09;;;13.55;75.29
53868;BME280;41577;47.470;19.080;2022-10-16T01:38:08;100714.25;;;13.55;74.86
53868;BME280;41577;47.470;19.080;2022-10-16T01:38:30;100712.59;;;13.54;75.23
53868;BME280;41577;47.470;19.080;2022-10-16T01:38:49;100709.28;;;13.52;75.13